Time;durP1;ratioP1;P1;durP2;ratioP2;P2;SDS_P1;SDS_P2;PMS_P1;PMS_P2;Temp;Humidity;BMP_temperature;BMP_pressure;BME280_temperature;BME280_humidity;BME280_pressure;Samples;Min_cycle;Max_cycle;Signal;HPM_P1;HPM_P2
2023/01/22 09:13:00;;;;;;;10.37;5.03;;;1.80;99.90;;;;;;4947826;23;20244;-73
2023/01/22 09:15:27;;;;;;;9.13;4.40;;;1.60;99.90;;;;;;4954526;29;20219;-74
2023/01/22 09:17:54;;;;;;;10.43;4.97;;;1.80;99.90;;;;;;4954898;28;20212;-73
2023/01/22 09:20:21;;;;;;;11.97;5.00;;;1.80;99.90;;;;;;4957511;29;20235;-73
2023/01/22 09:22:48;;;;;;;13.57;5.50;;;1.80;99.90;;;;;;4958953;29;20208;-74
2023/01/22 09:25:16;;;;;;;9.17;5.30;;;1.80;99.90;;;;;;4958592;29;20207;-74
2023/01/22 09:27:42;;;;;;;9.33;5.33;;;1.90;99.90;;;;;;4958533;29;20242;-74
2023/01/22 09:30:13;;;;;;;10.53;5.13;;;2.10;99.90;;;;;;4957125;29;20224;-74
2023/01/22 09:32:40;;;;;;;10.83;4.97;;;2.00;99.90;;;;;;4935949;29;20570;-73
2023/01/22 09:35:08;;;;;;;8.37;4.43;;;2.00;99.90;;;;;;4937866;29;20227;-70
2023/01/22 09:37:34;;;;;;;11.93;6.00;;;1.90;99.90;;;;;;4938025;29;20260;-72
2023/01/22 09:40:01;;;;;;;9.50;5.60;;;1.80;99.90;;;;;;4937431;29;20312;-71
2023/01/22 09:42:33;;;;;;;12.07;5.00;;;1.60;99.90;;;;;;4937564;29;20215;-72
2023/01/22 09:45:05;;;;;;;10.50;5.13;;;1.50;99.90;;;;;;4937323;29;20701;-69
2023/01/22 09:47:37;;;;;;;10.90;4.70;;;1.50;99.90;;;;;;4938127;29;20603;-71
2023/01/22 09:50:07;;;;;;;12.77;5.30;;;1.60;99.90;;;;;;4938208;29;20565;-69
2023/01/22 09:52:38;;;;;;;9.57;5.17;;;1.50;99.90;;;;;;4937912;29;20208;-70
2023/01/22 09:55:12;;;;;;;11.20;5.57;;;1.70;99.90;;;;;;4937881;29;20563;-70
2023/01/22 09:57:42;;;;;;;10.50;5.50;;;1.70;99.90;;;;;;4937739;29;20252;-71
2023/01/22 10:00:16;;;;;;;9.40;4.70;;;1.80;99.90;;;;;;4936952;29;20236;-73
2023/01/22 10:02:48;;;;;;;13.80;5.83;;;1.80;99.90;;;;;;4937847;29;20260;-70
2023/01/22 10:05:22;;;;;;;9.60;5.17;;;1.80;99.90;;;;;;4937729;29;20213;-70
2023/01/22 10:07:54;;;;;;;10.43;5.13;;;1.80;99.90;;;;;;4936899;29;20727;-69
2023/01/22 10:10:23;;;;;;;10.03;4.97;;;1.80;99.90;;;;;;4937438;29;20228;-72
2023/01/22 10:12:55;;;;;;;9.07;5.00;;;1.70;99.90;;;;;;4937583;29;20216;-72
2023/01/22 10:15:24;;;;;;;13.13;5.33;;;1.80;99.90;;;;;;4937155;29;20209;-72
2023/01/22 10:17:54;;;;;;;11.47;5.57;;;1.90;99.90;;;;;;4937799;29;20230;-71
2023/01/22 10:20:21;;;;;;;11.40;5.83;;;1.90;99.90;;;;;;4936797;29;20711;-74
2023/01/22 10:22:48;;;;;;;10.80;6.10;;;1.90;99.90;;;;;;4936497;29;20213;-71
2023/01/22 10:25:16;;;;;;;13.77;6.93;;;1.90;99.90;;;;;;4941799;29;20216;-73
2023/01/22 10:27:45;;;;;;;13.80;6.37;;;1.80;99.90;;;;;;4937018;29;20239;-72
2023/01/22 10:30:21;;;;;;;18.07;7.33;;;1.80;99.90;;;;;;4935687;29;20228;-73
2023/01/22 10:33:00;;;;;;;12.53;6.60;;;1.80;99.90;;;;;;4937091;29;20296;-73
2023/01/22 10:35:29;;;;;;;10.50;6.27;;;1.80;99.90;;;;;;4937623;29;20208;-73
2023/01/22 10:37:57;;;;;;;13.40;6.53;;;1.80;99.90;;;;;;4937137;29;20253;-72
2023/01/22 18:57:36;;;;;;;14.07;7.60;;;2.80;99.90;;;;;;4956981;23;20647;-72
2023/01/22 19:00:03;;;;;;;15.67;8.00;;;2.70;99.90;;;;;;4947702;29;20220;-73
2023/01/22 19:02:30;;;;;;;18.70;8.20;;;2.70;99.90;;;;;;4950049;29;20562;-72
2023/01/22 19:04:57;;;;;;;22.63;9.00;;;2.70;99.90;;;;;;4938457;29;20212;-72
2023/01/22 19:07:23;;;;;;;21.40;8.73;;;2.80;99.90;;;;;;4942613;29;20668;-72
2023/01/22 19:09:52;;;;;;;22.57;8.70;;;2.90;99.90;;;;;;4937363;29;20207;-73
2023/01/22 19:12:19;;;;;;;16.37;7.63;;;2.90;99.90;;;;;;4942691;29;20213;-73
2023/01/22 19:14:48;;;;;;;19.33;7.80;;;3.00;99.90;;;;;;4939438;29;20282;-73
2023/01/22 19:17:14;;;;;;;18.20;7.73;;;3.10;99.90;;;;;;4937309;29;20216;-72
2023/01/22 19:19:41;;;;;;;15.03;7.23;;;3.20;99.90;;;;;;4938933;29;20232;-73
2023/01/22 19:22:08;;;;;;;16.93;7.50;;;3.10;99.90;;;;;;4936804;29;20549;-73
2023/01/22 19:24:35;;;;;;;13.20;7.37;;;3.10;99.90;;;;;;4939695;29;20233;-73
2023/01/22 19:27:02;;;;;;;17.70;7.00;;;3.00;99.90;;;;;;4937027;29;20211;-73
2023/01/22 19:29:29;;;;;;;16.17;8.70;;;3.10;99.90;;;;;;4941390;29;20598;-73
2023/01/22 19:31:57;;;;;;;17.13;8.07;;;3.00;99.90;;;;;;4937231;29;20216;-73
2023/01/22 19:34:24;;;;;;;17.27;8.77;;;2.90;99.90;;;;;;4939374;29;20240;-73
2023/01/22 19:36:53;;;;;;;15.73;7.93;;;2.90;99.90;;;;;;4936886;29;20220;-73
2023/01/22 19:39:21;;;;;;;17.37;8.20;;;2.90;99.90;;;;;;4939074;29;20213;-73
2023/01/22 19:41:48;;;;;;;17.57;8.70;;;2.90;99.90;;;;;;4936854;29;20292;-72
2023/01/22 19:44:15;;;;;;;16.43;8.60;;;2.90;99.90;;;;;;4939601;29;20229;-73
2023/01/22 19:46:42;;;;;;;17.30;7.90;;;3.10;99.90;;;;;;4936424;29;20201;-73
2023/01/22 19:49:12;;;;;;;17.47;8.60;;;3.10;99.90;;;;;;4943582;29;20236;-73
2023/01/22 19:51:39;;;;;;;18.53;8.60;;;2.90;99.90;;;;;;4936451;29;20209;-73
2023/01/22 19:54:07;;;;;;;18.20;7.97;;;2.90;99.90;;;;;;4936436;29;20236;-73
2023/01/22 19:56:36;;;;;;;20.30;7.80;;;2.80;99.90;;;;;;4938097;29;20212;-73
2023/01/22 19:59:05;;;;;;;16.97;7.93;;;2.80;99.90;;;;;;4936007;29;20215;-73
2023/01/22 20:01:33;;;;;;;13.30;6.93;;;2.80;99.90;;;;;;4937792;29;20215;-73
2023/01/22 20:03:59;;;;;;;21.17;8.03;;;2.80;99.90;;;;;;4934478;29;20241;-72
2023/01/22 20:06:28;;;;;;;17.00;7.33;;;2.90;99.90;;;;;;4937317;29;20292;-72
2023/01/22 20:08:56;;;;;;;17.97;7.60;;;3.00;99.90;;;;;;4935466;29;20323;-73
2023/01/22 20:11:24;;;;;;;17.27;7.83;;;3.00;99.90;;;;;;4938346;29;20205;-73
2023/01/22 20:13:51;;;;;;;13.70;7.50;;;3.00;99.90;;;;;;4935715;29;20237;-72
2023/01/22 20:16:20;;;;;;;16.63;7.17;;;2.70;99.90;;;;;;4937961;29;20660;-72
2023/01/22 20:18:48;;;;;;;16.97;7.50;;;2.80;99.90;;;;;;4935876;29;20212;-73
2023/01/22 20:21:16;;;;;;;13.33;7.30;;;2.80;99.90;;;;;;4935836;29;20205;-73
2023/01/22 20:23:45;;;;;;;14.67;6.73;;;2.60;99.90;;;;;;4936272;29;20233;-73
2023/01/22 20:26:15;;;;;;;16.20;7.50;;;2.70;99.90;;;;;;4935570;29;20679;-73
2023/01/22 20:28:42;;;;;;;14.07;7.00;;;3.00;99.90;;;;;;4935861;29;20256;-72
2023/01/22 20:31:13;;;;;;;13.50;7.90;;;2.70;99.90;;;;;;4935854;29;20216;-73
2023/01/22 20:33:40;;;;;;;14.40;6.90;;;2.70;99.90;;;;;;4935595;29;20254;-73
2023/01/22 20:36:09;;;;;;;15.87;8.23;;;2.70;99.90;;;;;;4935939;29;20213;-73
2023/01/22 20:38:36;;;;;;;14.30;7.33;;;2.70;99.90;;;;;;4935433;29;20220;-73
2023/01/22 20:41:08;;;;;;;16.73;7.60;;;2.70;99.90;;;;;;4935804;29;20215;-73
2023/01/22 20:43:35;;;;;;;14.33;7.37;;;2.70;99.90;;;;;;4935282;29;20228;-73
2023/01/22 20:46:05;;;;;;;14.67;7.73;;;2.50;99.90;;;;;;4935699;29;20212;-73
2023/01/22 20:48:33;;;;;;;17.60;9.00;;;2.60;99.90;;;;;;4935714;29;20240;-73
2023/01/22 20:51:00;;;;;;;13.77;6.87;;;2.90;99.90;;;;;;4935831;29;20221;-73
2023/01/22 20:53:28;;;;;;;11.60;6.63;;;2.90;99.90;;;;;;4935215;29;20225;-73
2023/01/22 20:55:59;;;;;;;17.07;7.60;;;3.10;99.90;;;;;;4935488;29;20213;-73
2023/01/22 20:58:28;;;;;;;13.73;7.40;;;3.00;99.90;;;;;;4935332;29;20625;-73
2023/01/22 21:00:55;;;;;;;13.67;7.10;;;2.50;99.90;;;;;;4935515;29;20236;-73
2023/01/22 21:03:23;;;;;;;16.00;7.30;;;2.40;99.90;;;;;;4935217;29;20240;-73
2023/01/22 21:05:50;;;;;;;14.97;7.57;;;2.20;99.90;;;;;;4935499;29;20213;-73
2023/01/22 21:08:16;;;;;;;16.20;7.50;;;2.20;99.90;;;;;;4935086;29;20296;-73
2023/01/22 21:10:43;;;;;;;16.73;8.67;;;2.30;99.90;;;;;;4935709;29;20299;-73
2023/01/22 21:13:11;;;;;;;20.47;7.80;;;2.40;99.90;;;;;;4935003;29;20256;-73
2023/01/22 21:15:39;;;;;;;14.10;6.97;;;2.30;99.90;;;;;;4934408;29;20213;-73
2023/01/22 21:18:06;;;;;;;15.00;7.33;;;2.10;99.90;;;;;;4935618;29;20213;-73
2023/01/22 21:20:33;;;;;;;16.40;7.40;;;2.00;99.90;;;;;;4935114;29;20209;-73
2023/01/22 21:23:00;;;;;;;17.03;7.73;;;2.00;99.90;;;;;;4934892;29;20231;-73
2023/01/22 21:25:27;;;;;;;15.03;7.53;;;2.00;99.90;;;;;;4934617;29;20215;-73
2023/01/22 21:27:53;;;;;;;13.27;7.13;;;1.90;99.90;;;;;;4935071;29;20344;-72
2023/01/22 21:30:20;;;;;;;13.93;7.93;;;1.80;99.90;;;;;;4934646;29;20255;-73
2023/01/22 21:32:51;;;;;;;14.93;8.23;;;1.70;99.90;;;;;;4936200;29;20238;-73
2023/01/22 21:35:18;;;;;;;17.70;7.97;;;1.90;99.90;;;;;;4940123;29;20208;-73
2023/01/22 21:37:45;;;;;;;16.33;7.57;;;2.10;99.90;;;;;;4934960;29;20263;-73
2023/01/22 21:40:13;;;;;;;16.60;7.23;;;2.10;99.90;;;;;;4934719;29;20735;-73
2023/01/22 21:48:10;;;;;;;14.23;7.10;;;2.20;99.90;;;;;;4934664;29;20251;-73
2023/01/22 21:50:39;;;;;;;14.50;6.93;;;2.10;99.90;;;;;;4934894;29;20229;-73
2023/01/22 21:53:06;;;;;;;15.47;7.17;;;2.00;99.90;;;;;;4935182;29;20608;-72
2023/01/22 21:55:35;;;;;;;16.17;7.17;;;1.90;99.90;;;;;;4934981;29;20219;-72
2023/01/22 21:58:02;;;;;;;20.60;8.63;;;1.90;99.90;;;;;;4934553;29;20213;-72
2023/01/22 22:00:29;;;;;;;14.47;6.53;;;1.90;99.90;;;;;;4934830;29;20240;-72
2023/01/22 22:02:55;;;;;;;13.03;6.70;;;2.00;99.90;;;;;;4934984;29;20291;-72
2023/01/22 22:05:23;;;;;;;22.13;8.87;;;2.00;99.90;;;;;;4934962;29;20209;-72
2023/01/22 22:07:50;;;;;;;17.20;6.90;;;1.90;99.90;;;;;;4935106;29;20215;-72
